(°C)
10°
(°C)
-1°
-1°
-2°
ΒΔ
ΒΔ
ΒΔ
ΒΔ
ΒΒΔ
ΒΒΔ
ΒΒΔ
(χλμ / ω)
20-36
20-35
20-31
19-28
20-30
19-30
18-29
(χιλιοστά)
0
0
0
0
0
0
0
(%)
12
7
8
7
8
4
9

Sun elevation

/ -12.3°
sun-icon
UV 3
05:44
19:29
(6°)
06:17
19:50

METAR for 52.17°Β 20.97°Α (EPWA)

Χρόνος Conditions Θερμοκρασία/
Σημείο δρόσου
Άνεμος Ορατότητα Καιρός Νέφη Πίεση Change Raw
MVFR 10°C / 5°C 310º 14kt >10km - Broken Clouds 2000ft 1019 No Significant change EPWA 121830Z 31014KT 9999 BKN020 10/05 Q1019 NOSIG
VFR 10°C / 6°C 310º 17kt >10km - Few Clouds 2200ft 1018 No Significant change EPWA 121800Z 31017KT 9999 FEW022 10/06 Q1018 NOSIG
VFR 12°C / 7°C 300º 14kt >10km - Few Clouds 2300ft 1018 No Significant change EPWA 121730Z 30014KT 9999 FEW023 12/07 Q1018 NOSIG
VFR 13°C / 8°C 280º 12kt >10km - Clouds and Visibility OK 1017 No Significant change EPWA 121700Z 28012KT CAVOK 13/08 Q1017 NOSIG
VFR 13°C / 7°C 270º 12kt >10km - Clouds and Visibility OK 1017 No Significant change EPWA 121630Z 27012KT CAVOK 13/07 Q1017 NOSIG
VFR 13°C / 7°C 270º 13kt >10km - Clouds and Visibility OK 1016 No Significant change EPWA 121600Z 27013KT CAVOK 13/07 Q1016 NOSIG
VFR 15°C / 7°C 260º 14kt >10km - Clouds and Visibility OK 1016 No Significant change EPWA 121530Z 26014KT CAVOK 15/07 Q1016 NOSIG
VFR 16°C / 6°C 260º variable 220º to 280º 10kt >10km - Clouds and Visibility OK 1016 No Significant change EPWA 121500Z 26010KT 220V280 CAVOK 16/06 Q1016 NOSIG
VFR 16°C / 5°C 220º 5kt >10km - Clouds and Visibility OK 1016 No Significant change EPWA 121430Z 22005KT CAVOK 16/05 Q1016 NOSIG
VFR 17°C / 5°C 210º 6kt >10km - Clouds and Visibility OK 1015 No Significant change EPWA 121400Z 21006KT CAVOK 17/05 Q1015 NOSIG
VFR 17°C / 4°C 200º 5kt >10km - Clouds and Visibility OK 1015 No Significant change EPWA 121330Z 20005KT CAVOK 17/04 Q1015 NOSIG
VFR 17°C / 4°C 190º variable 150º to 220º 5kt >10km - Clouds and Visibility OK 1015 No Significant change EPWA 121300Z 19005KT 150V220 CAVOK 17/04 Q1015 NOSIG
VFR 17°C / 5°C 240º variable 200º to 270º 6kt >10km - Clouds and Visibility OK 1015 No Significant change EPWA 121230Z 24006KT 200V270 CAVOK 17/05 Q1015 NOSIG
VFR 18°C / 5°C variable 6kt >10km - Clouds and Visibility OK 1015 No Significant change EPWA 121200Z VRB06KT CAVOK 18/05 Q1015 NOSIG
VFR 18°C / 5°C 190º variable 160º to 220º 8kt >10km - Clouds and Visibility OK 1015 No Significant change EPWA 121130Z 19008KT 160V220 CAVOK 18/05 Q1015 NOSIG
VFR 18°C / 5°C 190º variable 130º to 240º 8kt >10km - Clouds and Visibility OK 1015 No Significant change EPWA 121100Z 19008KT 130V240 CAVOK 18/05 Q1015 NOSIG
VFR 18°C / 5°C 190º variable 140º to 230º 7kt >10km - Few Clouds 4600ft 1015 No Significant change EPWA 121030Z 19007KT 140V230 9999 FEW046 18/05 Q1015 NOSIG
VFR 17°C / 4°C 190º variable 120º to 260º 7kt >10km - Few Clouds 4300ft 1016 No Significant change EPWA 121000Z 19007KT 120V260 9999 FEW043 17/04 Q1016 NOSIG
VFR 17°C / 5°C variable 6kt >10km - Few Clouds 4300ft 1016 No Significant change EPWA 120930Z VRB06KT 9999 FEW043 17/05 Q1016 NOSIG
VFR 16°C / 4°C 170º 7kt >10km - Few Clouds 4000ft 1016 No Significant change EPWA 120900Z 17007KT 9999 FEW040 16/04 Q1016 NOSIG
VFR 16°C / 4°C 190º variable 140º to 240º 6kt >10km - Clouds and Visibility OK 1016 No Significant change EPWA 120830Z 19006KT 140V240 CAVOK 16/04 Q1016 NOSIG
VFR 15°C / 5°C 190º variable 160º to 220º 7kt >10km - Clouds and Visibility OK 1016 No Significant change EPWA 120800Z 19007KT 160V220 CAVOK 15/05 Q1016 NOSIG
VFR 15°C / 5°C 170º variable 130º to 200º 7kt >10km - Clouds and Visibility OK 1016 No Significant change EPWA 120730Z 17007KT 130V200 CAVOK 15/05 Q1016 NOSIG
VFR 14°C / 5°C 160º 8kt >10km - Clouds and Visibility OK 1016 No Significant change EPWA 120700Z 16008KT CAVOK 14/05 Q1016 NOSIG

MVFR

10°C / 5°C

[Περισσότερο]
Άνεμος 310º 14kt
Ορατότητα >10km
Καιρός -
Νέφη Broken Clouds 2000ft
Πίεση 1019
Change No Significant change
Raw EPWA 121830Z 31014KT 9999 BKN020 10/05 Q1019 NOSIG

VFR

10°C / 6°C

[Περισσότερο]
Άνεμος 310º 17kt
Ορατότητα >10km
Καιρός -
Νέφη Few Clouds 2200ft
Πίεση 1018
Change No Significant change
Raw EPWA 121800Z 31017KT 9999 FEW022 10/06 Q1018 NOSIG

VFR

12°C / 7°C

[Περισσότερο]
Άνεμος 300º 14kt
Ορατότητα >10km
Καιρός -
Νέφη Few Clouds 2300ft
Πίεση 1018
Change No Significant change
Raw EPWA 121730Z 30014KT 9999 FEW023 12/07 Q1018 NOSIG

VFR

13°C / 8°C

[Περισσότερο]
Άνεμος 280º 12kt
Ορατότητα >10km
Καιρός -
Νέφη Clouds and Visibility OK
Πίεση 1017
Change No Significant change
Raw EPWA 121700Z 28012KT CAVOK 13/08 Q1017 NOSIG

VFR

13°C / 7°C

[Περισσότερο]
Άνεμος 270º 12kt
Ορατότητα >10km
Καιρός -
Νέφη Clouds and Visibility OK
Πίεση 1017
Change No Significant change
Raw EPWA 121630Z 27012KT CAVOK 13/07 Q1017 NOSIG

VFR

13°C / 7°C

[Περισσότερο]
Άνεμος 270º 13kt
Ορατότητα >10km
Καιρός -
Νέφη Clouds and Visibility OK
Πίεση 1016
Change No Significant change
Raw EPWA 121600Z 27013KT CAVOK 13/07 Q1016 NOSIG

VFR

15°C / 7°C

[Περισσότερο]
Άνεμος 260º 14kt
Ορατότητα >10km
Καιρός -
Νέφη Clouds and Visibility OK
Πίεση 1016
Change No Significant change
Raw EPWA 121530Z 26014KT CAVOK 15/07 Q1016 NOSIG

VFR

16°C / 6°C

[Περισσότερο]
Άνεμος 260º variable 220º to 280º 10kt
Ορατότητα >10km
Καιρός -
Νέφη Clouds and Visibility OK
Πίεση 1016
Change No Significant change
Raw EPWA 121500Z 26010KT 220V280 CAVOK 16/06 Q1016 NOSIG

VFR

16°C / 5°C

[Περισσότερο]
Άνεμος 220º 5kt
Ορατότητα >10km
Καιρός -
Νέφη Clouds and Visibility OK
Πίεση 1016
Change No Significant change
Raw EPWA 121430Z 22005KT CAVOK 16/05 Q1016 NOSIG

VFR

17°C / 5°C

[Περισσότερο]
Άνεμος 210º 6kt
Ορατότητα >10km
Καιρός -
Νέφη Clouds and Visibility OK
Πίεση 1015
Change No Significant change
Raw EPWA 121400Z 21006KT CAVOK 17/05 Q1015 NOSIG

VFR

17°C / 4°C

[Περισσότερο]
Άνεμος 200º 5kt
Ορατότητα >10km
Καιρός -
Νέφη Clouds and Visibility OK
Πίεση 1015
Change No Significant change
Raw EPWA 121330Z 20005KT CAVOK 17/04 Q1015 NOSIG

VFR

17°C / 4°C

[Περισσότερο]
Άνεμος 190º variable 150º to 220º 5kt
Ορατότητα >10km
Καιρός -
Νέφη Clouds and Visibility OK
Πίεση 1015
Change No Significant change
Raw EPWA 121300Z 19005KT 150V220 CAVOK 17/04 Q1015 NOSIG

VFR

17°C / 5°C

[Περισσότερο]
Άνεμος 240º variable 200º to 270º 6kt
Ορατότητα >10km
Καιρός -
Νέφη Clouds and Visibility OK
Πίεση 1015
Change No Significant change
Raw EPWA 121230Z 24006KT 200V270 CAVOK 17/05 Q1015 NOSIG

VFR

18°C / 5°C

[Περισσότερο]
Άνεμος variable 6kt
Ορατότητα >10km
Καιρός -
Νέφη Clouds and Visibility OK
Πίεση 1015
Change No Significant change
Raw EPWA 121200Z VRB06KT CAVOK 18/05 Q1015 NOSIG

VFR

18°C / 5°C

[Περισσότερο]
Άνεμος 190º variable 160º to 220º 8kt
Ορατότητα >10km
Καιρός -
Νέφη Clouds and Visibility OK
Πίεση 1015
Change No Significant change
Raw EPWA 121130Z 19008KT 160V220 CAVOK 18/05 Q1015 NOSIG

VFR

18°C / 5°C

[Περισσότερο]
Άνεμος 190º variable 130º to 240º 8kt
Ορατότητα >10km
Καιρός -
Νέφη Clouds and Visibility OK
Πίεση 1015
Change No Significant change
Raw EPWA 121100Z 19008KT 130V240 CAVOK 18/05 Q1015 NOSIG

VFR

18°C / 5°C

[Περισσότερο]
Άνεμος 190º variable 140º to 230º 7kt
Ορατότητα >10km
Καιρός -
Νέφη Few Clouds 4600ft
Πίεση 1015
Change No Significant change
Raw EPWA 121030Z 19007KT 140V230 9999 FEW046 18/05 Q1015 NOSIG

VFR

17°C / 4°C

[Περισσότερο]
Άνεμος 190º variable 120º to 260º 7kt
Ορατότητα >10km
Καιρός -
Νέφη Few Clouds 4300ft
Πίεση 1016
Change No Significant change
Raw EPWA 121000Z 19007KT 120V260 9999 FEW043 17/04 Q1016 NOSIG

VFR

17°C / 5°C

[Περισσότερο]
Άνεμος variable 6kt
Ορατότητα >10km
Καιρός -
Νέφη Few Clouds 4300ft
Πίεση 1016
Change No Significant change
Raw EPWA 120930Z VRB06KT 9999 FEW043 17/05 Q1016 NOSIG

VFR

16°C / 4°C

[Περισσότερο]
Άνεμος 170º 7kt
Ορατότητα >10km
Καιρός -
Νέφη Few Clouds 4000ft
Πίεση 1016
Change No Significant change
Raw EPWA 120900Z 17007KT 9999 FEW040 16/04 Q1016 NOSIG

VFR

16°C / 4°C

[Περισσότερο]
Άνεμος 190º variable 140º to 240º 6kt
Ορατότητα >10km
Καιρός -
Νέφη Clouds and Visibility OK
Πίεση 1016
Change No Significant change
Raw EPWA 120830Z 19006KT 140V240 CAVOK 16/04 Q1016 NOSIG

VFR

15°C / 5°C

[Περισσότερο]
Άνεμος 190º variable 160º to 220º 7kt
Ορατότητα >10km
Καιρός -
Νέφη Clouds and Visibility OK
Πίεση 1016
Change No Significant change
Raw EPWA 120800Z 19007KT 160V220 CAVOK 15/05 Q1016 NOSIG

VFR

15°C / 5°C

[Περισσότερο]
Άνεμος 170º variable 130º to 200º 7kt
Ορατότητα >10km
Καιρός -
Νέφη Clouds and Visibility OK
Πίεση 1016
Change No Significant change
Raw EPWA 120730Z 17007KT 130V200 CAVOK 15/05 Q1016 NOSIG

VFR

14°C / 5°C

[Περισσότερο]
Άνεμος 160º 8kt
Ορατότητα >10km
Καιρός -
Νέφη Clouds and Visibility OK
Πίεση 1016
Change No Significant change
Raw EPWA 120700Z 16008KT CAVOK 14/05 Q1016 NOSIG

TAF for 52.17°Β 20.97°Α (EPWA)

From till


From till Wind 270º 12kt. Visibility 10km or more. Broken Clouds 2500ft.
Becoming from till Wind 330º 13kt. Visibility 10km or more. Broken Clouds 1300ft.
Temporarly from till Light Rain . Broken Clouds 800ft.
With 40% probability, Temporarly from till Visibility 3000m. Rain Snow . Broken Clouds 400ft.
Becoming from till Wind 330º 13kt. Visibility 10km or more. Broken Clouds 2000ft.

Raw: TAF EPWA 121730Z 1218/1318 27012KT 9999 BKN025 BECMG 1218/1221 33013KT BKN013 TEMPO 1218/1310 -RA BKN008 PROB40 TEMPO 1302/1308 3000 RASN BKN004 BECMG 1310/1312 BKN020

Current satellite and rain images for 52.17°Β 20.97°Α

  • Υετός:
  • <1 χιλιοστά
  • 1-2 χιλιοστά
  • 2-5 χιλιοστά
  • >5 χιλιοστά

Η ένδειξη τοποθεσίας τοποθετείται στο 52.17°Β 20.97°Α. [Περισσότερο]

The real-time satellite image combines visible light during daytime with infrared radiation during nighttime. At night, the image is not dark as infrared radiation can detect temperature differences. Unfortunately, low clouds and fog are difficult to distinguish from ground temperatures and thus can be almost invisible during the night. Meteosat satellite images for Europe are updated in real-time every 5 minutes. GOES-16/GOES-17 (North & South America) and Himawari (Asia) images update every 10 minutes.

Ο υετός υπολογίζεται από ραντάρ και δορυφόρους. Η εκτιμήση του υετού από δορυφόρους τη νύχτα είναι λιγότερο ακριβής από ό,τι την ημέρα. Με πορτοκαλί σταυροούς οι θέσεις όπου αστραπές εντοπίζονται (για Ευρώπη).

Πνευματική ιδιοκτησία 2021 EUMETSAT / meteoblue. Δεδομένα αστραπών παρεχόμενα από nowcast.